Time;durP1;ratioP1;P1;durP2;ratioP2;P2;SDS_P1;SDS_P2;PMS_P1;PMS_P2;Temp;Humidity;BMP_temperature;BMP_pressure;BME280_temperature;BME280_humidity;BME280_pressure;Samples;Min_cycle;Max_cycle;Signal;HPM_P1;HPM_P2
2021/06/06 00:02:24;;;;;;;10.38;5.90;;;;;;;20.82;56.13;101702.69;5071226;28;20059;-79
2021/06/06 00:04:49;;;;;;;6.22;5.68;;;;;;;20.87;54.48;101704.88;5070034;28;20037;-79
2021/06/06 00:07:14;;;;;;;8.82;5.85;;;;;;;20.86;55.03;101701.28;5069943;28;20433;-79
2021/06/06 00:09:40;;;;;;;15.00;6.18;;;;;;;20.81;53.83;101698.25;5071131;28;20032;-79
2021/06/06 00:12:06;;;;;;;6.90;6.00;;;;;;;20.81;53.90;101691.94;5071286;28;20035;-80
2021/06/06 00:14:34;;;;;;;7.90;5.60;;;;;;;20.83;53.04;101692.59;5071295;28;20063;-79
2021/06/06 00:17:02;;;;;;;11.38;5.97;;;;;;;20.76;52.65;101694.38;5069256;28;20484;-79
2021/06/06 00:19:29;;;;;;;9.43;5.93;;;;;;;20.81;52.57;101691.94;5070986;28;20072;-78
2021/06/06 00:21:57;;;;;;;6.18;5.00;;;;;;;20.80;53.29;101692.97;5069506;28;20123;-79
2021/06/06 00:24:26;;;;;;;7.88;5.70;;;;;;;20.76;52.69;101678.81;5070802;28;20029;-79
2021/06/06 00:26:52;;;;;;;7.32;5.25;;;;;;;20.66;53.14;101683.63;5070748;28;20081;-79
2021/06/06 00:29:18;;;;;;;12.30;6.13;;;;;;;20.75;53.28;101685.28;5070821;28;20024;-79
2021/06/06 00:31:44;;;;;;;7.40;5.85;;;;;;;20.59;53.71;101682.66;5070903;28;20093;-79
2021/06/06 00:34:09;;;;;;;7.32;5.70;;;;;;;20.61;53.61;101686.06;5071243;28;20032;-79
2021/06/06 00:36:35;;;;;;;7.53;6.63;;;;;;;20.56;53.78;101675.66;5069183;28;20021;-80
2021/06/06 00:39:00;;;;;;;11.63;6.60;;;;;;;20.60;53.61;101682.50;5070637;28;20642;-79
2021/06/06 00:41:28;;;;;;;6.75;6.07;;;;;;;20.67;53.42;101684.50;5070240;28;20033;-79
2021/06/06 00:43:55;;;;;;;6.70;5.93;;;;;;;20.63;53.60;101689.44;5070108;28;20035;-79
2021/06/06 00:46:23;;;;;;;9.15;6.93;;;;;;;20.64;53.38;101692.03;5070372;28;20040;-79
2021/06/06 00:48:49;;;;;;;7.03;5.90;;;;;;;20.52;53.43;101698.91;5068889;28;20484;-79
2021/06/06 00:51:39;;;;;;;7.70;6.40;;;;;;;20.53;53.28;101700.63;5068661;28;20035;-79
2021/06/06 00:54:14;;;;;;;6.93;6.25;;;;;;;20.52;53.93;101701.66;5070269;28;20036;-79
2021/06/06 00:56:42;;;;;;;11.15;7.20;;;;;;;20.54;54.03;101707.81;5068705;28;20029;-79
2021/06/06 00:59:10;;;;;;;7.63;6.50;;;;;;;20.55;53.52;101705.91;5070618;28;20101;-79
2021/06/06 01:01:35;;;;;;;9.68;6.43;;;;;;;20.50;54.13;101702.81;5068940;28;20032;-79
2021/06/06 01:04:03;;;;;;;7.07;6.15;;;;;;;20.51;54.22;101710.84;5070467;28;20024;-79
2021/06/06 01:06:42;;;;;;;8.90;6.20;;;;;;;20.51;54.30;101705.38;5070049;28;20031;-78
2021/06/06 01:09:09;;;;;;;9.40;6.47;;;;;;;20.51;55.40;101702.66;5068141;28;20036;-79
2021/06/06 01:11:55;;;;;;;9.93;5.93;;;;;;;20.42;55.48;101707.31;5070114;28;20036;-79
2021/06/06 01:14:26;;;;;;;9.70;6.07;;;;;;;20.42;55.40;101695.53;5068773;28;20036;-79
2021/06/06 01:17:04;;;;;;;6.43;5.82;;;;;;;20.37;55.12;101693.31;5068373;28;20407;-79
2021/06/06 01:19:32;;;;;;;9.20;6.32;;;;;;;20.30;55.22;101696.94;5069765;28;20048;-79
2021/06/06 01:22:06;;;;;;;7.20;6.25;;;;;;;20.31;55.42;101688.56;5069798;28;20029;-79
2021/06/06 01:24:36;;;;;;;8.10;6.35;;;;;;;20.36;55.15;101685.31;5069720;28;20028;-79
2021/06/06 01:27:09;;;;;;;9.98;6.93;;;;;;;20.29;55.84;101687.88;5069985;28;20472;-79
2021/06/06 01:29:42;;;;;;;8.43;6.22;;;;;;;20.16;55.87;101682.97;5068109;28;20048;-79
2021/06/06 01:32:17;;;;;;;7.43;6.18;;;;;;;20.18;55.44;101678.19;5069755;28;20119;-79
2021/06/06 01:34:46;;;;;;;7.80;6.28;;;;;;;20.17;55.48;101676.50;5068508;28;20036;-80
2021/06/06 01:37:16;;;;;;;8.70;6.80;;;;;;;20.20;54.79;101669.81;5069671;28;20112;-80
2021/06/06 01:39:45;;;;;;;10.75;5.82;;;;;;;20.12;55.05;101669.84;5067490;28;20025;-79
2021/06/06 01:42:15;;;;;;;7.70;5.75;;;;;;;20.10;54.60;101670.00;5069397;28;20036;-79
2021/06/06 01:44:45;;;;;;;11.20;5.85;;;;;;;20.07;54.22;101667.63;5068045;28;20029;-80
2021/06/06 01:47:17;;;;;;;6.15;5.55;;;;;;;20.14;54.29;101667.78;5068030;28;20047;-80
2021/06/06 01:50:01;;;;;;;6.13;5.30;;;;;;;20.11;54.19;101674.47;5069583;28;20112;-80
2021/06/06 01:52:32;;;;;;;8.60;5.35;;;;;;;20.13;53.75;101671.53;5067857;28;20048;-80
2021/06/06 01:54:59;;;;;;;7.22;5.35;;;;;;;20.06;53.93;101663.22;5069128;28;20162;-80
2021/06/06 01:57:26;;;;;;;12.18;6.63;;;;;;;20.10;53.80;101664.56;5067736;28;20033;-80
2021/06/06 01:59:54;;;;;;;6.93;5.30;;;;;;;20.10;53.15;101661.81;5069320;28;20043;-80
2021/06/06 02:02:20;;;;;;;6.97;5.65;;;;;;;20.14;53.03;101660.47;5068880;28;20032;-80
2021/06/06 02:04:47;;;;;;;8.32;6.13;;;;;;;20.14;53.60;101657.72;5068299;28;20377;-80
2021/06/06 02:07:16;;;;;;;6.22;5.65;;;;;;;20.00;53.43;101654.88;5069222;28;20024;-80
2021/06/06 02:09:47;;;;;;;7.32;4.95;;;;;;;19.99;53.25;101656.75;5069379;28;20115;-79
2021/06/06 02:12:12;;;;;;;5.93;5.32;;;;;;;20.04;52.73;101657.06;5068893;28;20020;-79
2021/06/06 02:14:42;;;;;;;7.25;5.40;;;;;;;19.96;52.85;101649.75;5069158;28;20396;-80
2021/06/06 02:17:22;;;;;;;5.50;5.00;;;;;;;19.93;52.42;101650.13;5068987;28;20131;-79
2021/06/06 02:19:47;;;;;;;6.22;5.38;;;;;;;19.88;53.07;101651.66;5069148;28;20036;-79
2021/06/06 02:22:15;;;;;;;8.05;5.38;;;;;;;19.81;52.71;101645.22;5068923;28;20028;-79
2021/06/06 02:24:41;;;;;;;5.85;4.90;;;;;;;19.94;52.35;101648.22;5066507;28;20153;-79
2021/06/06 02:27:13;;;;;;;6.30;5.15;;;;;;;19.95;52.48;101648.03;5068969;28;20028;-80
2021/06/06 02:29:40;;;;;;;7.15;5.40;;;;;;;19.90;52.21;101653.19;5067095;28;20036;-79
2021/06/06 02:32:17;;;;;;;7.50;4.65;;;;;;;19.92;51.93;101648.38;5068891;28;20035;-79
2021/06/06 02:35:13;;;;;;;7.97;5.28;;;;;;;19.91;51.94;101645.84;5068712;28;20031;-80
2021/06/06 02:37:50;;;;;;;8.68;5.53;;;;;;;19.84;51.66;101642.97;5068935;28;20550;-80
2021/06/06 02:40:27;;;;;;;5.40;4.72;;;;;;;19.88;51.69;101646.19;5068771;28;20028;-80
2021/06/06 02:42:55;;;;;;;7.97;4.40;;;;;;;19.93;51.64;101644.66;5068471;28;20104;-79
2021/06/06 02:45:25;;;;;;;7.30;4.43;;;;;;;19.83;51.63;101643.13;5068170;28;20028;-79
2021/06/06 02:47:53;;;;;;;6.53;4.65;;;;;;;19.83;51.60;101638.53;5068444;28;20063;-79
2021/06/06 02:50:24;;;;;;;6.15;5.13;;;;;;;19.77;51.60;101632.91;5067311;28;20098;-79
2021/06/06 02:53:01;;;;;;;7.38;5.05;;;;;;;19.76;51.73;101639.41;5071032;28;20392;-79
2021/06/06 02:55:31;;;;;;;5.03;4.63;;;;;;;19.72;51.53;101639.75;5072656;28;20028;-79
2021/06/06 02:58:09;;;;;;;5.68;4.65;;;;;;;19.78;51.76;101637.38;5072391;28;20524;-79
2021/06/06 03:00:40;;;;;;;6.80;5.10;;;;;;;19.78;51.42;101637.38;5071142;28;20064;-79
2021/06/06 03:03:10;;;;;;;7.22;4.53;;;;;;;19.76;51.29;101629.34;5072382;28;20078;-79
2021/06/06 03:05:36;;;;;;;5.35;4.85;;;;;;;19.72;51.52;101630.72;5072668;28;20041;-79
2021/06/06 03:08:04;;;;;;;4.75;4.35;;;;;;;19.76;51.17;101640.25;5070975;28;20387;-80
2021/06/06 03:10:31;;;;;;;5.40;4.90;;;;;;;19.80;51.36;101641.59;5071003;28;20430;-80
2021/06/06 03:13:03;;;;;;;6.43;5.28;;;;;;;19.82;51.24;101633.25;5072302;28;20039;-80
2021/06/06 03:15:34;;;;;;;5.80;4.78;;;;;;;19.79;51.18;101637.19;5072511;28;20055;-80
2021/06/06 03:18:01;;;;;;;;;;;;;;;19.77;51.14;101639.22;5070881;28;20020;-80
2021/06/06 03:20:31;;;;;;;8.30;5.03;;;;;;;19.77;50.91;101638.38;5071903;28;19938;-80
2021/06/06 03:23:00;;;;;;;7.85;4.72;;;;;;;19.79;50.73;101636.34;5071964;28;20029;-79
2021/06/06 03:25:38;;;;;;;5.68;4.20;;;;;;;19.79;50.56;101636.34;5070464;28;20377;-79
2021/06/06 03:28:06;;;;;;;9.13;4.28;;;;;;;19.80;50.66;101632.56;5071642;28;20060;-79
2021/06/06 03:30:31;;;;;;;7.68;4.40;;;;;;;19.65;50.99;101624.22;5070206;28;20100;-79
2021/06/06 03:32:59;;;;;;;7.20;4.25;;;;;;;19.70;50.50;101632.75;5071966;28;20127;-80
2021/06/06 03:35:25;;;;;;;5.88;4.28;;;;;;;19.71;50.79;101635.34;5071322;28;20032;-80
2021/06/06 03:37:50;;;;;;;7.50;4.20;;;;;;;19.73;50.79;101633.25;5071238;28;20086;-80
2021/06/06 03:40:17;;;;;;;6.05;4.32;;;;;;;19.73;50.50;101627.81;5071994;28;20029;-80
2021/06/06 03:42:43;;;;;;;7.38;4.50;;;;;;;19.80;50.40;101630.69;5069977;28;20024;-79
2021/06/06 03:45:10;;;;;;;6.68;4.43;;;;;;;19.76;50.76;101637.53;5071907;28;20182;-80
2021/06/06 03:47:36;;;;;;;5.53;4.35;;;;;;;19.75;50.64;101633.09;5071445;28;20028;-80
2021/06/06 03:50:04;;;;;;;4.97;4.13;;;;;;;19.68;50.88;101638.41;5071534;28;20028;-80
2021/06/06 03:52:34;;;;;;;5.97;4.78;;;;;;;19.69;51.16;101637.38;5071404;28;20034;-80
2021/06/06 03:55:01;;;;;;;6.68;5.10;;;;;;;19.73;51.19;101636.00;5070217;28;20029;-80
2021/06/06 03:57:27;;;;;;;8.68;4.10;;;;;;;19.64;51.34;101631.56;5071354;28;20067;-80
2021/06/06 03:59:52;;;;;;;7.63;4.63;;;;;;;19.55;51.64;101638.03;5069814;28;20056;-80
2021/06/06 04:02:17;;;;;;;4.50;4.10;;;;;;;19.51;52.15;101637.53;5070945;28;20380;-79
2021/06/06 04:04:43;;;;;;;5.68;4.57;;;;;;;19.49;52.27;101644.19;5071413;28;20029;-80
2021/06/06 04:07:08;;;;;;;5.00;4.57;;;;;;;19.47;52.83;101646.25;5069635;28;20024;-80
2021/06/06 04:09:34;;;;;;;6.50;4.85;;;;;;;19.46;53.18;101655.44;5069933;28;20029;-81
2021/06/06 04:11:59;;;;;;;5.25;4.57;;;;;;;19.40;53.62;101656.97;5069577;28;20056;-80
2021/06/06 04:14:24;;;;;;;5.28;4.55;;;;;;;19.49;53.34;101652.38;5071014;28;20029;-79
2021/06/06 04:16:50;;;;;;;12.25;4.60;;;;;;;19.55;53.00;101643.50;5071205;28;20496;-80
2021/06/06 04:19:15;;;;;;;7.97;5.13;;;;;;;19.48;53.12;101650.69;5071178;28;20032;-80
2021/06/06 04:21:40;;;;;;;7.28;4.75;;;;;;;19.52;53.15;101641.97;5071202;28;20086;-80
2021/06/06 04:24:06;;;;;;;4.93;4.40;;;;;;;19.59;52.92;101642.16;5070520;28;20028;-80
2021/06/06 04:26:32;;;;;;;7.50;4.72;;;;;;;19.62;53.10;101643.66;5071241;28;20361;-80
2021/06/06 04:28:57;;;;;;;9.68;4.65;;;;;;;19.60;52.77;101638.38;5069266;28;20028;-81
2021/06/06 04:31:25;;;;;;;6.82;4.75;;;;;;;19.55;53.16;101638.03;5070744;28;20059;-81
2021/06/06 04:33:50;;;;;;;8.90;4.60;;;;;;;19.56;52.94;101641.63;5070660;28;20508;-80
2021/06/06 04:36:16;;;;;;;6.15;4.32;;;;;;;19.44;53.51;101632.97;5070832;28;20596;-80
2021/06/06 04:38:42;;;;;;;5.28;4.55;;;;;;;19.60;52.76;101632.94;5070510;28;20025;-80
2021/06/06 04:41:10;;;;;;;7.20;4.93;;;;;;;19.54;53.07;101643.69;5069171;28;20029;-79
2021/06/06 04:43:37;;;;;;;5.53;4.65;;;;;;;19.42;53.10;101643.19;5070749;28;20473;-79
2021/06/06 04:46:03;;;;;;;8.02;5.97;;;;;;;19.52;53.03;101641.13;5069065;28;20040;-79
2021/06/06 04:48:38;;;;;;;7.35;4.28;;;;;;;19.59;53.45;101644.88;5070376;28;20036;-79
2021/06/06 04:51:10;;;;;;;8.55;5.07;;;;;;;19.49;53.40;101642.31;5070423;28;20192;-79
2021/06/06 04:53:36;;;;;;;8.73;4.40;;;;;;;19.52;53.42;101635.66;5070533;28;20031;-79
2021/06/06 04:56:01;;;;;;;11.48;4.97;;;;;;;19.47;53.77;101644.38;5068667;28;20028;-79
2021/06/06 04:58:30;;;;;;;6.15;4.55;;;;;;;19.58;53.42;101648.59;5070120;28;20028;-79
2021/06/06 05:00:55;;;;;;;7.90;5.28;;;;;;;19.59;53.50;101646.72;5070199;28;20044;-80
2021/06/06 05:03:21;;;;;;;8.38;4.93;;;;;;;19.61;53.70;101644.69;5070389;28;20039;-80
2021/06/06 05:05:47;;;;;;;5.57;4.35;;;;;;;19.66;53.53;101647.78;5070095;28;20039;-80
2021/06/06 05:08:19;;;;;;;8.80;4.97;;;;;;;19.64;53.92;101652.53;5068499;28;20476;-80
2021/06/06 05:10:46;;;;;;;8.05;5.00;;;;;;;19.56;53.76;101650.69;5070231;28;20503;-80
2021/06/06 05:13:11;;;;;;;8.82;5.40;;;;;;;19.62;53.55;101646.38;5069831;28;20438;-80
2021/06/06 05:15:37;;;;;;;6.53;5.35;;;;;;;19.54;54.04;101646.41;5069282;28;20103;-80
2021/06/06 05:18:04;;;;;;;11.95;5.55;;;;;;;19.69;53.59;101642.84;5069891;28;20103;-80
2021/06/06 05:20:33;;;;;;;7.40;5.45;;;;;;;19.71;53.67;101648.09;5069939;28;20070;-80
2021/06/06 05:23:00;;;;;;;5.53;4.82;;;;;;;19.80;53.46;101643.47;5069943;28;21126;-80
2021/06/06 05:25:26;;;;;;;8.48;5.35;;;;;;;19.82;53.04;101657.81;5069850;28;20145;-79
2021/06/06 05:27:51;;;;;;;6.93;5.15;;;;;;;19.81;53.38;101656.13;5068022;28;20021;-79
2021/06/06 05:30:22;;;;;;;7.32;4.97;;;;;;;19.81;54.27;101654.25;5069649;28;20505;-79
2021/06/06 05:32:51;;;;;;;6.22;4.55;;;;;;;19.88;53.35;101663.44;5069663;28;20536;-79
2021/06/06 05:35:17;;;;;;;6.57;4.97;;;;;;;19.94;53.33;101667.34;5069557;28;20112;-79
2021/06/06 05:37:43;;;;;;;5.70;4.93;;;;;;;19.92;53.18;101666.66;5069515;28;20135;-79
2021/06/06 05:40:09;;;;;;;7.32;5.40;;;;;;;19.96;53.07;101673.50;5069461;28;20199;-80
2021/06/06 05:42:35;;;;;;;7.65;5.50;;;;;;;19.92;53.09;101670.22;5067981;28;20461;-79
2021/06/06 05:45:00;;;;;;;7.55;5.15;;;;;;;19.95;53.25;101663.56;5069515;28;20103;-79
2021/06/06 05:47:26;;;;;;;7.03;4.68;;;;;;;20.01;52.61;101673.78;5068018;28;20033;-80
2021/06/06 05:49:51;;;;;;;8.52;5.10;;;;;;;20.13;52.54;101674.28;5067657;28;20039;-79
2021/06/06 05:52:16;;;;;;;12.90;5.07;;;;;;;20.16;52.28;101677.50;5069450;28;20028;-79
2021/06/06 05:54:42;;;;;;;5.75;5.10;;;;;;;20.04;52.09;101678.91;5067599;28;20107;-80
2021/06/06 05:57:07;;;;;;;7.05;4.65;;;;;;;20.09;52.54;101675.66;5069276;28;20453;-78
2021/06/06 05:59:33;;;;;;;10.02;4.70;;;;;;;20.13;51.91;101677.00;5067762;28;20037;-79
2021/06/06 06:01:58;;;;;;;5.93;4.95;;;;;;;20.14;51.91;101678.69;5069438;28;20041;-79
2021/06/06 06:04:24;;;;;;;6.32;4.90;;;;;;;20.18;51.90;101683.66;5067640;28;20129;-79
2021/06/06 06:06:49;;;;;;;7.03;4.55;;;;;;;20.25;52.15;101688.41;5067669;28;20032;-80
2021/06/06 06:09:14;;;;;;;7.53;4.53;;;;;;;20.25;51.54;101681.06;5067311;28;20055;-79
2021/06/06 06:11:40;;;;;;;7.32;4.85;;;;;;;20.42;50.93;101685.44;5069438;28;20401;-80
2021/06/06 06:14:05;;;;;;;8.82;4.97;;;;;;;20.52;50.36;101690.72;5067540;28;20028;-80
2021/06/06 06:16:36;;;;;;;5.80;4.50;;;;;;;20.54;50.77;101690.53;5068942;28;20028;-80
2021/06/06 06:19:02;;;;;;;5.53;4.03;;;;;;;20.67;49.50;101684.50;5067899;28;20036;-80
2021/06/06 06:21:30;;;;;;;8.00;4.18;;;;;;;20.63;50.18;101694.91;5067431;28;20097;-79
2021/06/06 06:23:55;;;;;;;8.65;4.82;;;;;;;20.62;50.97;101691.34;5068871;28;20081;-80
2021/06/06 06:26:22;;;;;;;5.35;4.45;;;;;;;20.67;50.54;101692.72;5068575;28;20028;-79
2021/06/06 06:28:47;;;;;;;5.38;4.50;;;;;;;20.74;50.01;101690.94;5068591;28;20396;-79
2021/06/06 06:31:15;;;;;;;10.00;4.97;;;;;;;20.61;50.36;101689.66;5068487;28;20082;-79
2021/06/06 06:33:41;;;;;;;5.47;4.78;;;;;;;20.72;50.61;101693.00;5067372;28;20477;-79
2021/06/06 06:36:08;;;;;;;7.53;4.45;;;;;;;20.80;50.21;101695.69;5068817;28;20113;-79
2021/06/06 06:38:33;;;;;;;4.97;3.97;;;;;;;20.71;50.63;101692.16;5067369;28;20032;-79
2021/06/06 06:40:59;;;;;;;11.13;4.40;;;;;;;20.76;50.01;101687.00;5068631;28;20074;-80
2021/06/06 06:43:25;;;;;;;9.43;4.28;;;;;;;20.65;50.29;101691.00;5068785;28;20032;-79
2021/06/06 06:45:53;;;;;;;4.82;4.32;;;;;;;20.78;49.78;101684.94;5068653;28;20081;-79
2021/06/06 06:48:21;;;;;;;5.95;4.20;;;;;;;20.85;50.22;101691.41;5068598;28;20104;-79
2021/06/06 06:50:47;;;;;;;7.10;4.80;;;;;;;20.99;49.72;101688.91;5067027;28;20033;-79
2021/06/06 06:53:14;;;;;;;5.07;4.60;;;;;;;21.11;49.98;101684.72;5068675;28;20024;-79
2021/06/06 06:55:39;;;;;;;7.28;4.30;;;;;;;21.07;49.56;101680.66;5068569;28;20091;-79
2021/06/06 06:58:08;;;;;;;8.10;4.78;;;;;;;20.99;50.06;101678.81;5068442;28;20480;-80
2021/06/06 07:00:39;;;;;;;5.90;4.30;;;;;;;21.03;50.08;101682.91;5066808;28;20473;-79
2021/06/06 07:03:09;;;;;;;7.15;4.22;;;;;;;21.25;50.33;101683.09;5068457;28;20400;-80
2021/06/06 07:05:35;;;;;;;6.53;4.05;;;;;;;21.33;50.10;101683.88;5068147;28;20032;-80
2021/06/06 07:08:02;;;;;;;5.85;3.90;;;;;;;21.47;50.31;101681.41;5067221;28;20048;-80
2021/06/06 07:10:32;;;;;;;7.13;4.32;;;;;;;21.47;49.66;101684.13;5068454;28;20032;-80
2021/06/06 07:12:58;;;;;;;5.05;4.10;;;;;;;21.51;49.41;101680.00;5068752;28;20385;-80
2021/06/06 07:15:24;;;;;;;5.10;4.40;;;;;;;21.50;49.19;101684.63;5067059;28;20546;-80
2021/06/06 07:17:50;;;;;;;6.00;4.28;;;;;;;21.51;50.49;101688.19;5068298;28;20043;-79
2021/06/06 07:20:19;;;;;;;5.55;4.05;;;;;;;21.67;49.09;101689.94;5066591;28;20032;-79
2021/06/06 07:22:44;;;;;;;5.68;3.90;;;;;;;21.63;48.41;101686.72;5068530;28;20040;-80
2021/06/06 07:25:12;;;;;;;5.18;4.15;;;;;;;21.69;48.25;101687.88;5066443;28;20086;-79
2021/06/06 07:27:43;;;;;;;5.90;3.75;;;;;;;21.85;47.54;101689.59;5066527;28;20552;-79
2021/06/06 07:30:11;;;;;;;4.00;3.47;;;;;;;22.06;46.77;101699.81;5067930;28;20040;-79
2021/06/06 07:32:37;;;;;;;6.03;3.78;;;;;;;22.07;47.40;101693.28;5068036;28;20032;-79
2021/06/06 07:35:06;;;;;;;4.75;3.97;;;;;;;22.02;47.09;101693.88;5068556;28;20029;-80
2021/06/06 07:37:32;;;;;;;6.82;3.78;;;;;;;22.19;46.15;101703.63;5067453;28;20029;-79
2021/06/06 07:39:58;;;;;;;5.60;3.88;;;;;;;22.17;47.21;101704.88;5071531;28;20021;-81
2021/06/06 07:42:23;;;;;;;4.82;3.70;;;;;;;22.27;46.71;101694.47;5072044;28;20040;-80
2021/06/06 07:44:49;;;;;;;9.35;3.90;;;;;;;22.24;46.17;101700.31;5070316;28;20032;-80
2021/06/06 07:47:14;;;;;;;5.07;3.88;;;;;;;22.20;46.91;101696.28;5071597;28;20037;-80
2021/06/06 07:49:40;;;;;;;6.00;3.20;;;;;;;22.36;46.83;101701.53;5070787;28;20033;-80
2021/06/06 07:52:07;;;;;;;6.38;3.33;;;;;;;22.36;46.23;101703.44;5071600;28;20038;-80
2021/06/06 07:54:34;;;;;;;9.35;3.85;;;;;;;22.33;46.37;101699.19;5070179;28;20020;-80
2021/06/06 07:57:03;;;;;;;7.30;3.65;;;;;;;22.44;46.54;101703.34;5071244;28;20090;-80
2021/06/06 07:59:29;;;;;;;8.90;3.40;;;;;;;22.51;45.35;101703.44;5071089;28;20052;-80
2021/06/06 08:01:54;;;;;;;8.80;3.78;;;;;;;22.52;44.82;101703.22;5071361;28;20469;-80
2021/06/06 08:04:20;;;;;;;7.07;3.42;;;;;;;22.62;44.89;101702.91;5071114;28;20024;-80
2021/06/06 08:06:47;;;;;;;4.85;3.35;;;;;;;22.68;44.66;101697.53;5071109;28;20056;-80
2021/06/06 08:09:12;;;;;;;8.20;3.58;;;;;;;22.81;45.57;101702.31;5071259;28;20043;-80
2021/06/06 08:11:38;;;;;;;4.35;3.33;;;;;;;22.74;46.67;101698.63;5070479;28;20021;-80
2021/06/06 08:14:04;;;;;;;5.05;3.90;;;;;;;22.80;46.05;101694.28;5069581;28;20029;-80
2021/06/06 08:16:29;;;;;;;4.70;3.53;;;;;;;22.94;44.94;101693.44;5069735;28;20079;-80
2021/06/06 08:18:55;;;;;;;5.47;3.35;;;;;;;22.90;45.77;101695.69;5070943;28;20123;-80
2021/06/06 08:21:31;;;;;;;6.85;4.13;;;;;;;22.85;45.87;101692.66;5071177;28;20533;-80
2021/06/06 08:23:56;;;;;;;4.60;3.90;;;;;;;22.82;46.67;101695.78;5069340;28;20024;-80
2021/06/06 08:26:24;;;;;;;5.13;3.35;;;;;;;22.86;46.09;101699.84;5070441;28;20067;-80
2021/06/06 08:28:52;;;;;;;7.88;4.32;;;;;;;22.93;44.94;101694.44;5071792;28;20032;-80
2021/06/06 08:31:21;;;;;;;4.75;4.03;;;;;;;23.02;44.73;101693.31;5060298;28;20103;-81
2021/06/06 08:33:47;;;;;;;4.32;3.38;;;;;;;22.95;45.84;101697.84;5067159;28;20021;-78
2021/06/06 08:36:20;;;;;;;6.82;4.05;;;;;;;22.97;44.96;101698.53;5066847;28;20032;-80
2021/06/06 08:38:45;;;;;;;8.73;4.88;;;;;;;22.94;45.13;101696.16;5065361;28;20400;-80
2021/06/06 08:41:26;;;;;;;6.07;3.88;;;;;;;23.02;45.86;101703.41;5067036;28;20039;-80
2021/06/06 08:43:58;;;;;;;5.53;3.60;;;;;;;23.07;46.23;101703.69;5066210;28;20021;-79
2021/06/06 08:46:24;;;;;;;6.15;3.67;;;;;;;23.14;46.70;101710.09;5067786;28;20033;-80
2021/06/06 08:48:51;;;;;;;9.65;4.70;;;;;;;23.26;46.03;101708.53;5067507;28;20028;-80
2021/06/06 08:51:25;;;;;;;5.93;4.40;;;;;;;23.25;47.75;101714.22;5067015;28;20051;-81
2021/06/06 08:54:31;;;;;;;11.00;4.60;;;;;;;23.40;46.08;101710.34;5067208;28;20446;-82
2021/06/06 08:57:14;;;;;;;6.95;4.20;;;;;;;23.40;46.17;101712.25;5067045;28;20035;-78
2021/06/06 08:59:46;;;;;;;10.38;3.83;;;;;;;23.38;46.63;101712.44;5067519;28;20028;-79
2021/06/06 09:02:25;;;;;;;6.75;3.75;;;;;;;23.34;46.10;101711.16;5066142;28;20070;-78
2021/06/06 09:04:52;;;;;;;6.78;3.50;;;;;;;23.36;47.61;101714.56;5065115;28;20128;-78
2021/06/06 09:07:34;;;;;;;4.20;3.60;;;;;;;23.51;46.23;101716.34;5067000;28;20496;-79
2021/06/06 09:10:20;;;;;;;6.82;4.65;;;;;;;23.47;46.64;101718.66;5066499;28;20043;-78
2021/06/06 09:12:46;;;;;;;7.00;4.20;;;;;;;23.53;46.82;101712.38;5065418;28;20036;-81
2021/06/06 09:15:16;;;;;;;6.47;5.03;;;;;;;23.57;45.66;101705.47;5065282;28;20028;-79
2021/06/06 09:17:49;;;;;;;6.40;4.97;;;;;;;23.48;47.04;101714.88;5067810;28;20034;-80
2021/06/06 09:20:27;;;;;;;7.53;4.45;;;;;;;23.53;46.00;101712.38;5064690;28;20047;-79
2021/06/06 09:23:08;;;;;;;7.97;4.88;;;;;;;23.50;45.76;101714.66;5066254;28;20024;-79
2021/06/06 09:25:37;;;;;;;6.63;4.72;;;;;;;23.42;47.48;101714.78;5055526;28;20029;-77
2021/06/06 09:28:12;;;;;;;6.38;4.50;;;;;;;23.15;48.14;101712.66;5065926;28;20029;-77
2021/06/06 09:30:40;;;;;;;7.25;5.35;;;;;;;23.22;48.25;101707.22;5065008;28;20029;-77
2021/06/06 09:33:31;;;;;;;6.10;4.43;;;;;;;23.13;47.20;101705.66;5065929;28;20032;-77
2021/06/06 09:35:59;;;;;;;;;;;;;;;23.08;48.26;101713.63;5066054;28;20032;-77
2021/06/06 09:38:30;;;;;;;6.15;3.92;;;;;;;23.20;48.13;101712.06;5066068;28;19916;-77
2021/06/06 09:41:08;;;;;;;7.22;4.43;;;;;;;23.38;48.22;101725.31;5065406;28;20043;-76
2021/06/06 09:43:34;;;;;;;7.47;4.93;;;;;;;23.50;47.68;101715.50;5065152;28;20587;-77
2021/06/06 09:46:13;;;;;;;5.70;4.00;;;;;;;23.46;47.23;101716.13;5068267;28;20068;-76
2021/06/06 09:48:39;;;;;;;4.53;4.13;;;;;;;23.68;47.69;101715.03;5061474;28;20028;-76
2021/06/06 09:51:26;;;;;;;7.22;4.47;;;;;;;23.76;47.84;101714.94;5065248;28;20036;-76
2021/06/06 09:53:57;;;;;;;8.60;4.60;;;;;;;23.83;46.83;101724.06;5065946;28;20024;-77
2021/06/06 09:56:28;;;;;;;6.82;4.72;;;;;;;24.04;46.87;101722.31;5065506;28;20427;-76
2021/06/06 09:59:06;;;;;;;7.05;5.10;;;;;;;23.83;47.26;101721.31;5065809;28;20036;-78
2021/06/06 10:01:37;;;;;;;5.70;5.07;;;;;;;23.99;46.09;101719.31;5065717;28;20060;-78
2021/06/06 10:04:04;;;;;;;5.28;4.68;;;;;;;24.13;46.73;101723.03;5066287;28;20097;-78
2021/06/06 10:06:30;;;;;;;6.97;4.55;;;;;;;24.18;46.17;101721.38;5063933;28;20089;-78
2021/06/06 10:08:57;;;;;;;6.57;4.75;;;;;;;24.18;46.09;101715.00;5065443;28;20492;-78
2021/06/06 10:11:31;;;;;;;6.65;4.55;;;;;;;24.20;45.88;101724.75;5063389;28;20031;-78
2021/06/06 10:13:59;;;;;;;5.25;4.22;;;;;;;24.24;46.08;101730.69;5065612;28;20052;-78
2021/06/06 10:16:35;;;;;;;5.72;5.00;;;;;;;24.36;45.91;101729.06;5065503;28;20069;-78
2021/06/06 10:19:27;;;;;;;7.85;4.80;;;;;;;24.40;46.77;101730.38;5065219;28;20111;-78
2021/06/06 10:21:59;;;;;;;5.18;4.50;;;;;;;24.32;45.58;101733.28;5061945;28;20035;-78
2021/06/06 10:24:33;;;;;;;6.05;5.15;;;;;;;24.38;45.90;101732.47;5065575;28;20059;-78
2021/06/06 10:27:10;;;;;;;7.78;4.57;;;;;;;24.51;45.35;101737.22;5065953;28;20063;-78
2021/06/06 10:29:43;;;;;;;6.53;4.70;;;;;;;24.40;46.06;101733.13;5064168;28;20024;-78
2021/06/06 10:32:27;;;;;;;11.52;4.95;;;;;;;24.52;46.16;101731.53;5065108;28;20025;-78
2021/06/06 10:34:59;;;;;;;6.88;4.82;;;;;;;24.41;46.30;101728.47;5066087;28;20157;-78
2021/06/06 10:37:26;;;;;;;7.10;4.70;;;;;;;24.50;45.54;101730.88;5049228;28;20052;-78
2021/06/06 10:40:02;;;;;;;7.05;4.43;;;;;;;24.44;46.88;101733.59;5065491;28;20580;-79
2021/06/06 10:42:35;;;;;;;8.90;5.10;;;;;;;24.30;47.22;101736.25;5064977;28;20037;-79
2021/06/06 10:45:07;;;;;;;6.97;5.57;;;;;;;24.12;47.48;101733.16;5063759;28;20028;-79
2021/06/06 10:47:51;;;;;;;7.28;4.75;;;;;;;24.19;47.09;101735.97;5065459;28;20379;-78
2021/06/06 10:50:29;;;;;;;8.23;5.45;;;;;;;24.17;47.77;101747.13;5068685;28;20060;-78
2021/06/06 10:53:19;;;;;;;8.43;4.78;;;;;;;24.10;48.02;101742.66;5063784;28;20060;-78
2021/06/06 10:55:57;;;;;;;6.33;5.10;;;;;;;24.08;47.32;101743.69;5063400;28;20028;-78
2021/06/06 10:58:48;;;;;;;6.75;5.22;;;;;;;24.14;48.09;101739.28;5065052;28;20028;-79
2021/06/06 11:01:17;;;;;;;5.78;4.55;;;;;;;24.14;47.32;101742.03;5061280;28;20447;-78
2021/06/06 11:03:42;;;;;;;8.32;5.70;;;;;;;24.35;47.18;101743.03;5065402;28;20055;-79
2021/06/06 11:06:23;;;;;;;5.55;4.95;;;;;;;24.33;48.42;101745.97;5065927;28;20520;-78
2021/06/06 11:08:49;;;;;;;6.10;4.43;;;;;;;24.50;47.68;101741.88;5065122;28;20365;-78
2021/06/06 11:11:22;;;;;;;8.38;5.25;;;;;;;24.73;49.05;101741.56;5064845;28;20120;-78
2021/06/06 11:13:55;;;;;;;8.82;5.05;;;;;;;25.03;47.43;101748.66;5068958;28;20024;-78
2021/06/06 11:16:28;;;;;;;8.70;4.88;;;;;;;24.95;46.01;101750.53;5068812;28;20108;-78
2021/06/06 11:19:09;;;;;;;6.97;4.72;;;;;;;24.92;46.90;101752.88;5069345;28;20028;-78
2021/06/06 11:21:37;;;;;;;6.25;4.30;;;;;;;25.17;46.30;101745.75;5069607;28;20407;-78
2021/06/06 11:24:19;;;;;;;6.25;5.65;;;;;;;25.08;47.62;101746.97;5066908;28;20033;-78
2021/06/06 11:26:51;;;;;;;6.18;5.05;;;;;;;25.28;46.17;101743.44;5068111;28;20043;-78
2021/06/06 11:29:20;;;;;;;7.13;5.00;;;;;;;25.25;46.02;101741.09;5068041;28;20037;-78
2021/06/06 11:32:12;;;;;;;7.35;4.63;;;;;;;25.20;47.56;101744.50;5068394;28;20411;-78
2021/06/06 11:34:41;;;;;;;6.28;4.25;;;;;;;25.22;46.58;101745.13;5068590;28;20448;-78
2021/06/06 11:37:28;;;;;;;9.02;4.55;;;;;;;25.13;46.26;101758.25;5067694;28;20396;-78